Time;durP1;ratioP1;P1;durP2;ratioP2;P2;SDS_P1;SDS_P2;PMS_P1;PMS_P2;Temp;Humidity;BMP_temperature;BMP_pressure;BME280_temperature;BME280_humidity;BME280_pressure;Samples;Min_cycle;Max_cycle;Signal;HPM_P1;HPM_P2
2022/07/24 00:02:14;;;;;;;4.97;3.53;;;15.80;99.90;;;;;;5044634;28;20041;-75
2022/07/24 00:04:40;;;;;;;10.40;3.85;;;15.70;99.90;;;;;;5047147;28;20082;-78
2022/07/24 00:07:06;;;;;;;4.85;3.33;;;15.80;99.90;;;;;;5047579;28;20103;-76
2022/07/24 00:09:31;;;;;;;3.67;3.38;;;15.70;99.90;;;;;;5044626;28;20041;-76
2022/07/24 00:11:58;;;;;;;4.28;3.40;;;15.70;99.90;;;;;;5047837;28;20403;-75
2022/07/24 00:14:24;;;;;;;6.35;4.03;;;15.70;99.90;;;;;;5048077;28;20397;-76
2022/07/24 00:16:50;;;;;;;3.53;3.22;;;15.70;99.90;;;;;;5044160;28;20047;-76
2022/07/24 00:19:15;;;;;;;7.40;4.10;;;15.70;99.90;;;;;;5047615;28;20056;-77
2022/07/24 00:21:41;;;;;;;7.13;3.58;;;15.60;99.90;;;;;;5048031;28;20055;-76
2022/07/24 00:24:08;;;;;;;3.58;3.25;;;15.70;99.90;;;;;;5045915;28;20041;-76
2022/07/24 00:26:34;;;;;;;5.78;4.07;;;15.60;99.90;;;;;;5044790;28;20052;-76
2022/07/24 00:29:00;;;;;;;5.82;4.03;;;15.60;99.90;;;;;;5044248;28;20049;-76
2022/07/24 00:31:26;;;;;;;5.03;4.05;;;15.50;99.90;;;;;;5046452;28;20119;-76
2022/07/24 00:33:51;;;;;;;5.00;3.72;;;15.50;99.90;;;;;;5045889;28;20078;-76
2022/07/24 00:36:17;;;;;;;6.38;4.05;;;15.50;99.90;;;;;;5046734;28;20051;-76
2022/07/24 00:38:43;;;;;;;4.40;3.47;;;15.50;99.90;;;;;;5045745;28;20071;-76
2022/07/24 00:41:09;;;;;;;7.53;4.05;;;15.50;99.90;;;;;;5046525;28;20049;-76
2022/07/24 00:43:34;;;;;;;5.68;4.07;;;15.40;99.90;;;;;;5046609;28;20044;-76
2022/07/24 00:46:00;;;;;;;7.43;3.67;;;15.50;99.90;;;;;;5046047;28;20068;-76
2022/07/24 00:48:26;;;;;;;7.45;4.22;;;15.40;99.90;;;;;;5042365;28;20045;-76
2022/07/24 00:50:51;;;;;;;5.32;4.78;;;15.40;99.90;;;;;;5047443;28;20041;-76
2022/07/24 00:53:17;;;;;;;5.25;4.18;;;15.40;99.90;;;;;;5046775;28;20049;-77
2022/07/24 00:55:44;;;;;;;5.95;4.78;;;15.40;99.90;;;;;;5045460;28;20511;-76
2022/07/24 00:58:09;;;;;;;5.28;4.20;;;15.40;99.90;;;;;;5042651;28;20446;-76
2022/07/24 01:00:35;;;;;;;5.68;4.75;;;15.50;99.90;;;;;;5044809;28;20045;-76
2022/07/24 01:03:01;;;;;;;6.05;4.30;;;15.40;99.90;;;;;;5043521;28;20095;-78
2022/07/24 01:05:27;;;;;;;6.43;5.22;;;15.40;99.90;;;;;;5045530;28;20037;-78
2022/07/24 01:07:52;;;;;;;6.53;5.65;;;15.40;99.90;;;;;;5044930;28;20048;-77
2022/07/24 01:10:18;;;;;;;5.35;4.63;;;15.50;99.90;;;;;;5044157;28;20483;-76
2022/07/24 01:12:44;;;;;;;6.75;4.93;;;15.40;99.90;;;;;;5045525;28;20415;-77
2022/07/24 01:15:11;;;;;;;7.05;4.88;;;15.50;99.90;;;;;;5045292;28;20094;-77
2022/07/24 01:17:39;;;;;;;8.60;5.93;;;15.40;99.90;;;;;;5044142;28;20049;-77
2022/07/24 01:20:06;;;;;;;6.35;5.40;;;15.40;99.90;;;;;;5046545;28;20037;-76
2022/07/24 01:22:32;;;;;;;9.82;5.03;;;15.40;99.90;;;;;;5045950;28;20033;-75
2022/07/24 01:24:58;;;;;;;7.32;5.35;;;15.50;99.90;;;;;;5047581;28;20526;-77
2022/07/24 01:27:24;;;;;;;6.13;5.53;;;15.40;99.90;;;;;;5044613;28;20191;-76
2022/07/24 01:29:51;;;;;;;8.60;6.15;;;15.40;99.90;;;;;;5046403;28;20076;-76
2022/07/24 01:32:16;;;;;;;6.00;5.50;;;15.50;99.90;;;;;;5043405;28;20407;-76
2022/07/24 01:34:42;;;;;;;8.70;5.53;;;15.50;99.90;;;;;;5027907;28;20037;-76
2022/07/24 01:37:09;;;;;;;6.13;5.63;;;15.50;99.90;;;;;;5043589;28;20265;-78
2022/07/24 01:39:34;;;;;;;9.52;5.57;;;15.40;99.90;;;;;;5042997;28;20037;-76
2022/07/24 01:42:00;;;;;;;7.78;6.25;;;15.50;99.90;;;;;;5046052;28;20457;-75
2022/07/24 01:44:26;;;;;;;6.30;5.63;;;15.50;99.90;;;;;;5028071;28;20467;-75
2022/07/24 01:46:52;;;;;;;8.15;7.35;;;15.40;99.90;;;;;;5041304;28;20056;-78
2022/07/24 01:49:17;;;;;;;6.00;5.25;;;15.40;99.90;;;;;;5046565;28;20048;-77
2022/07/24 01:51:43;;;;;;;10.73;6.07;;;15.40;99.90;;;;;;5031282;22;20160;-77
2022/07/24 01:54:08;;;;;;;7.05;6.35;;;15.40;99.90;;;;;;5006603;28;20045;-75
2022/07/24 01:56:34;;;;;;;7.53;6.40;;;15.40;99.90;;;;;;5019057;28;20072;-76
2022/07/24 01:59:00;;;;;;;6.35;5.75;;;15.40;99.90;;;;;;5026857;28;20111;-76
2022/07/24 02:01:26;;;;;;;8.45;6.43;;;15.30;99.90;;;;;;5012981;28;20145;-76
2022/07/24 02:03:52;;;;;;;6.82;5.88;;;15.30;99.90;;;;;;5021803;28;20131;-75
2022/07/24 02:06:18;;;;;;;6.82;6.07;;;15.40;99.90;;;;;;5025072;28;20101;-76
2022/07/24 02:08:44;;;;;;;6.75;6.10;;;15.40;99.90;;;;;;5025474;28;20083;-76
2022/07/24 02:11:10;;;;;;;6.97;6.35;;;15.40;99.90;;;;;;5023369;28;20033;-78
2022/07/24 02:13:36;;;;;;;7.25;6.53;;;15.30;99.90;;;;;;5026395;28;20517;-76
2022/07/24 02:16:02;;;;;;;7.45;6.00;;;15.30;99.90;;;;;;5023357;28;20037;-78
2022/07/24 02:18:27;;;;;;;7.28;6.57;;;15.40;99.90;;;;;;5026232;28;20041;-76
2022/07/24 02:20:53;;;;;;;6.55;5.93;;;15.30;99.90;;;;;;5023686;28;20091;-78
2022/07/24 02:23:19;;;;;;;7.47;6.70;;;15.30;99.90;;;;;;5008861;28;20381;-76
2022/07/24 02:25:46;;;;;;;6.60;5.80;;;15.30;99.90;;;;;;5025142;28;20789;-77
2022/07/24 02:28:12;;;;;;;6.93;6.22;;;15.40;99.90;;;;;;5023904;28;20099;-77
2022/07/24 02:30:38;;;;;;;7.20;6.50;;;15.40;99.90;;;;;;5025171;28;20049;-78
2022/07/24 02:33:03;;;;;;;7.75;6.20;;;15.20;99.90;;;;;;5025514;28;20092;-76
2022/07/24 02:35:29;;;;;;;7.93;7.07;;;15.30;99.90;;;;;;5023795;28;20046;-76
2022/07/24 02:37:55;;;;;;;7.47;5.63;;;15.30;99.90;;;;;;5025776;28;20073;-76
2022/07/24 02:40:20;;;;;;;11.48;7.55;;;15.30;99.90;;;;;;5024544;28;20092;-76
2022/07/24 02:42:47;;;;;;;7.22;5.85;;;15.30;99.90;;;;;;5023854;28;20034;-78
2022/07/24 02:45:13;;;;;;;7.70;6.20;;;15.20;99.90;;;;;;5024601;28;20044;-76
2022/07/24 02:47:53;;;;;;;6.93;6.22;;;15.20;99.90;;;;;;5023653;28;20393;-77
2022/07/24 02:50:20;;;;;;;8.77;7.50;;;15.20;99.90;;;;;;5026236;28;20136;-77
2022/07/24 02:52:47;;;;;;;6.90;6.30;;;15.30;99.90;;;;;;5044362;28;20053;-76
2022/07/24 02:55:13;;;;;;;7.05;6.35;;;15.30;99.90;;;;;;5028963;28;20488;-76
2022/07/24 02:57:39;;;;;;;10.68;6.55;;;15.10;99.90;;;;;;5028536;28;20057;-76
2022/07/24 03:00:09;;;;;;;8.93;6.70;;;15.10;99.90;;;;;;5028894;28;20052;-76
2022/07/24 03:02:35;;;;;;;7.10;6.50;;;15.20;99.90;;;;;;5024468;28;20042;-77
2022/07/24 03:05:02;;;;;;;7.25;5.72;;;15.10;99.90;;;;;;5023591;28;20085;-76
2022/07/24 03:07:28;;;;;;;8.07;7.10;;;15.20;99.90;;;;;;5027491;28;20428;-77
2022/07/24 03:09:54;;;;;;;7.70;6.82;;;15.20;99.90;;;;;;5029344;28;20106;-76
2022/07/24 03:12:20;;;;;;;8.48;6.63;;;15.20;99.90;;;;;;5011695;28;20049;-76
2022/07/24 03:14:46;;;;;;;7.97;6.20;;;15.10;99.90;;;;;;5027576;28;20187;-79
2022/07/24 03:17:11;;;;;;;9.25;7.07;;;15.20;99.90;;;;;;5021418;28;20090;-78
2022/07/24 03:19:37;;;;;;;9.55;7.15;;;15.10;99.90;;;;;;5029202;28;20038;-76
2022/07/24 03:22:03;;;;;;;6.55;5.95;;;15.30;99.90;;;;;;5028540;28;20049;-76
2022/07/24 03:24:29;;;;;;;8.10;6.70;;;15.20;99.90;;;;;;5028304;28;20563;-78
2022/07/24 03:26:54;;;;;;;9.27;6.75;;;15.20;99.90;;;;;;5028520;28;20044;-78
2022/07/24 03:29:20;;;;;;;7.40;6.70;;;15.10;99.90;;;;;;5028273;28;20052;-78
2022/07/24 03:31:46;;;;;;;12.82;7.80;;;15.20;99.90;;;;;;5027613;28;20033;-78
2022/07/24 03:34:12;;;;;;;7.35;6.65;;;15.20;99.90;;;;;;5028180;28;20049;-78
2022/07/24 03:36:37;;;;;;;8.60;7.65;;;15.20;99.90;;;;;;5027237;28;20136;-78
2022/07/24 03:39:04;;;;;;;8.32;7.53;;;15.20;99.90;;;;;;5028517;28;20038;-76
2022/07/24 03:41:30;;;;;;;7.68;6.47;;;15.10;99.90;;;;;;5010707;28;20075;-78
2022/07/24 03:43:56;;;;;;;7.82;6.85;;;15.20;99.90;;;;;;5027387;28;20081;-76
2022/07/24 03:46:21;;;;;;;9.25;6.78;;;15.20;99.90;;;;;;5024347;28;20080;-76
2022/07/24 03:48:47;;;;;;;8.43;7.55;;;15.10;99.90;;;;;;5026284;28;20478;-77
2022/07/24 03:51:13;;;;;;;8.45;7.15;;;15.30;99.90;;;;;;5027269;28;20093;-76
2022/07/24 03:53:38;;;;;;;7.82;7.03;;;15.30;99.90;;;;;;5025701;28;20050;-76
2022/07/24 03:56:09;;;;;;;10.90;7.22;;;15.20;99.90;;;;;;5028144;28;20104;-78
2022/07/24 03:58:34;;;;;;;8.55;7.75;;;15.20;99.90;;;;;;5027429;28;20115;-75
2022/07/24 04:01:00;;;;;;;13.73;8.50;;;15.20;99.90;;;;;;5026133;28;20041;-77
2022/07/24 04:03:26;;;;;;;7.93;7.05;;;15.20;99.90;;;;;;5024079;28;20184;-76
2022/07/24 04:05:51;;;;;;;9.38;7.28;;;15.20;99.90;;;;;;5008311;28;20128;-77
2022/07/24 04:08:17;;;;;;;8.60;7.85;;;15.20;99.90;;;;;;5009604;28;20137;-76
2022/07/24 04:10:43;;;;;;;7.97;7.18;;;15.30;99.90;;;;;;5027643;28;20052;-77
2022/07/24 04:13:08;;;;;;;7.25;6.55;;;15.40;99.90;;;;;;5027846;28;20049;-77
2022/07/24 04:15:34;;;;;;;11.88;7.43;;;15.20;99.90;;;;;;5023139;28;20419;-77
2022/07/24 04:18:00;;;;;;;12.50;7.80;;;15.20;99.90;;;;;;5008163;28;20081;-77
2022/07/24 04:20:25;;;;;;;8.93;8.00;;;15.20;99.90;;;;;;5007730;28;20447;-77
2022/07/24 04:22:51;;;;;;;6.95;6.03;;;15.30;99.90;;;;;;5009959;28;20104;-77
2022/07/24 04:25:18;;;;;;;9.35;7.43;;;15.30;99.90;;;;;;5027927;28;20052;-77
2022/07/24 04:27:44;;;;;;;9.00;7.22;;;15.30;99.90;;;;;;5026490;28;20041;-77
2022/07/24 04:30:11;;;;;;;8.02;7.22;;;15.30;99.90;;;;;;5025010;28;20041;-77
2022/07/24 04:32:37;;;;;;;12.27;8.77;;;15.50;99.90;;;;;;5025210;28;20078;-77
2022/07/24 04:35:04;;;;;;;9.77;8.50;;;15.50;99.90;;;;;;5026569;28;20396;-77
2022/07/24 04:37:30;;;;;;;11.07;7.68;;;15.40;99.90;;;;;;5026146;28;20073;-78
2022/07/24 04:39:56;;;;;;;8.25;6.85;;;15.50;99.90;;;;;;5024998;28;20135;-77
2022/07/24 04:42:22;;;;;;;10.95;8.13;;;15.40;99.90;;;;;;5038758;28;20450;-77
2022/07/24 04:44:48;;;;;;;9.57;8.48;;;15.40;99.90;;;;;;5025275;28;20503;-77
2022/07/24 04:47:13;;;;;;;8.52;7.65;;;15.40;99.90;;;;;;5028043;28;20049;-77
2022/07/24 04:49:39;;;;;;;7.57;6.82;;;15.40;99.90;;;;;;5025550;28;20041;-79
2022/07/24 04:52:05;;;;;;;8.65;7.70;;;15.50;99.90;;;;;;5025268;28;20057;-76
2022/07/24 04:54:31;;;;;;;7.85;6.47;;;15.50;99.90;;;;;;5024576;28;20079;-75
2022/07/24 04:56:56;;;;;;;9.63;8.18;;;15.50;99.90;;;;;;5024758;28;20116;-76
2022/07/24 04:59:22;;;;;;;11.43;7.90;;;15.60;99.90;;;;;;5023024;28;20373;-75
2022/07/24 05:01:48;;;;;;;9.02;8.15;;;15.60;99.90;;;;;;5022272;28;20065;-76
2022/07/24 05:04:13;;;;;;;8.30;6.95;;;15.70;99.90;;;;;;5026238;28;20053;-77
2022/07/24 05:06:39;;;;;;;12.82;8.32;;;15.70;99.90;;;;;;5016269;28;20153;-78
2022/07/24 05:09:05;;;;;;;11.10;8.57;;;15.80;99.90;;;;;;5025476;28;20482;-76
2022/07/24 05:11:30;;;;;;;8.25;7.45;;;15.90;99.90;;;;;;5025287;28;20126;-76
2022/07/24 05:13:56;;;;;;;8.50;7.60;;;15.90;99.90;;;;;;5025301;28;20120;-77
2022/07/24 05:16:22;;;;;;;12.45;8.43;;;16.00;99.90;;;;;;5023163;28;20434;-78
2022/07/24 05:18:47;;;;;;;8.80;7.93;;;16.00;99.90;;;;;;5026070;28;20764;-76
2022/07/24 05:21:14;;;;;;;14.80;8.57;;;16.10;99.90;;;;;;5026247;28;20034;-76
2022/07/24 05:23:40;;;;;;;10.00;8.40;;;16.10;99.90;;;;;;5024231;28;20175;-78
2022/07/24 05:26:06;;;;;;;10.88;8.07;;;16.10;99.90;;;;;;5019474;28;20125;-77
2022/07/24 05:28:32;;;;;;;10.30;7.63;;;16.00;99.90;;;;;;5025797;28;20041;-77
2022/07/24 05:30:58;;;;;;;9.88;8.88;;;16.20;99.90;;;;;;5024600;28;20193;-76
2022/07/24 05:33:24;;;;;;;11.50;9.15;;;16.10;99.90;;;;;;5026339;28;20126;-76
2022/07/24 05:35:50;;;;;;;9.57;8.48;;;16.30;99.90;;;;;;5024095;28;20041;-78
2022/07/24 05:38:16;;;;;;;11.82;9.95;;;16.40;99.90;;;;;;5026808;28;20595;-78
2022/07/24 05:40:41;;;;;;;12.45;9.30;;;16.40;99.90;;;;;;5023838;28;20033;-77
2022/07/24 05:43:07;;;;;;;11.32;9.07;;;16.40;99.90;;;;;;5025998;28;20052;-77
2022/07/24 05:45:32;;;;;;;11.43;8.07;;;16.50;99.90;;;;;;5024493;28;20460;-77
2022/07/24 05:47:58;;;;;;;9.38;8.48;;;16.60;99.90;;;;;;5024509;28;20462;-77
2022/07/24 05:50:24;;;;;;;9.88;8.88;;;16.70;99.90;;;;;;5023154;28;20148;-78
2022/07/24 05:52:49;;;;;;;9.90;8.98;;;16.70;99.90;;;;;;5006943;28;20085;-78
2022/07/24 05:55:15;;;;;;;10.63;8.82;;;16.90;99.90;;;;;;5023766;28;20073;-78
2022/07/24 05:57:41;;;;;;;11.68;9.00;;;16.90;99.90;;;;;;5022541;28;20088;-77
2022/07/24 06:00:08;;;;;;;14.93;9.10;;;17.00;99.90;;;;;;5024619;28;20474;-76
2022/07/24 06:02:34;;;;;;;15.80;11.55;;;17.10;99.90;;;;;;5024776;28;20124;-76
2022/07/24 06:05:00;;;;;;;13.60;9.68;;;17.10;99.90;;;;;;5023993;28;20108;-77
2022/07/24 06:07:25;;;;;;;13.23;11.55;;;17.20;99.90;;;;;;5025707;28;20037;-78
2022/07/24 06:09:52;;;;;;;11.60;9.38;;;17.30;99.90;;;;;;5025040;28;20093;-77
2022/07/24 06:12:17;;;;;;;12.52;11.23;;;17.40;99.90;;;;;;5023056;28;20045;-78
2022/07/24 06:14:43;;;;;;;13.50;10.90;;;17.50;99.90;;;;;;5024831;28;20423;-77
2022/07/24 06:17:09;;;;;;;14.30;10.55;;;17.60;99.90;;;;;;5024593;28;20046;-77
2022/07/24 06:19:35;;;;;;;12.93;10.15;;;17.60;99.90;;;;;;5022051;28;20080;-78
2022/07/24 06:22:01;;;;;;;16.80;10.80;;;17.70;99.90;;;;;;5017916;28;20046;-77
2022/07/24 06:24:26;;;;;;;16.90;12.23;;;17.70;99.90;;;;;;5021173;28;20034;-76
2022/07/24 06:26:52;;;;;;;16.25;12.57;;;17.80;99.90;;;;;;5024126;28;20391;-78
2022/07/24 06:29:18;;;;;;;15.48;13.80;;;18.00;99.90;;;;;;5025874;28;20042;-76
2022/07/24 06:31:43;;;;;;;13.52;12.13;;;18.00;99.90;;;;;;5024817;28;20099;-77
2022/07/24 06:34:09;;;;;;;13.20;11.73;;;18.10;99.90;;;;;;5024554;28;20049;-78
2022/07/24 06:36:35;;;;;;;17.88;12.27;;;18.20;99.90;;;;;;5024758;28;20054;-77
2022/07/24 06:39:00;;;;;;;14.38;11.68;;;18.20;99.90;;;;;;5023542;28;20489;-77
2022/07/24 06:41:26;;;;;;;13.77;12.32;;;18.30;99.90;;;;;;5024612;28;20408;-77
2022/07/24 06:43:51;;;;;;;14.98;12.85;;;18.40;99.90;;;;;;5024706;28;20515;-78
2022/07/24 06:46:17;;;;;;;18.98;13.00;;;18.40;99.90;;;;;;5023110;28;20475;-77
2022/07/24 06:48:43;;;;;;;15.98;13.30;;;18.60;99.90;;;;;;5025781;28;20104;-78
2022/07/24 06:51:08;;;;;;;19.77;13.57;;;18.60;99.90;;;;;;5021618;28;20053;-77
2022/07/24 06:53:34;;;;;;;17.20;12.88;;;18.70;99.90;;;;;;5025512;28;20049;-77
2022/07/24 06:56:01;;;;;;;16.10;13.50;;;18.80;99.90;;;;;;5022936;28;20060;-78
2022/07/24 06:58:26;;;;;;;14.93;13.40;;;18.90;99.90;;;;;;5022166;28;20404;-77
2022/07/24 07:00:52;;;;;;;14.30;12.27;;;19.10;99.90;;;;;;5022989;28;20110;-76
2022/07/24 07:03:18;;;;;;;13.57;12.20;;;19.30;99.90;;;;;;5026002;28;20064;-77
2022/07/24 07:05:44;;;;;;;14.93;12.90;;;19.60;99.90;;;;;;5022297;28;20610;-77
2022/07/24 07:08:10;;;;;;;11.82;10.07;;;20.00;99.90;;;;;;5024579;28;20042;-77
2022/07/24 07:10:35;;;;;;;12.82;10.45;;;20.20;99.90;;;;;;5024523;28;20052;-76
2022/07/24 07:13:01;;;;;;;11.90;10.57;;;20.20;99.90;;;;;;5022668;28;20168;-77
2022/07/24 07:15:27;;;;;;;13.85;10.93;;;20.20;99.90;;;;;;5023059;28;20483;-76
2022/07/24 07:17:52;;;;;;;13.32;9.07;;;20.10;99.90;;;;;;5025127;28;20044;-76
2022/07/24 07:20:18;;;;;;;10.80;8.65;;;20.10;99.90;;;;;;5023920;28;20037;-75
2022/07/24 07:22:44;;;;;;;10.65;8.43;;;20.10;99.90;;;;;;5019092;28;20052;-76
2022/07/24 07:25:11;;;;;;;10.88;9.80;;;20.10;99.90;;;;;;5020497;28;20044;-76
2022/07/24 07:27:37;;;;;;;9.07;8.18;;;20.20;99.90;;;;;;5019575;28;20056;-76
2022/07/24 07:30:04;;;;;;;12.80;9.35;;;20.20;99.90;;;;;;5004831;28;20073;-74
2022/07/24 07:32:29;;;;;;;9.95;6.75;;;20.40;99.90;;;;;;5021632;28;20107;-75
2022/07/24 07:34:55;;;;;;;11.45;7.38;;;20.60;99.90;;;;;;5021144;28;20038;-76
2022/07/24 07:37:20;;;;;;;7.88;7.07;;;20.90;99.90;;;;;;5025961;28;20040;-77
2022/07/24 07:39:46;;;;;;;10.48;7.70;;;21.10;99.90;;;;;;5028920;28;20045;-76
2022/07/24 07:42:12;;;;;;;9.05;7.03;;;21.10;99.90;;;;;;5028135;28;20136;-77
2022/07/24 07:44:37;;;;;;;14.00;8.27;;;21.00;99.90;;;;;;5024338;28;20072;-77
2022/07/24 07:47:03;;;;;;;9.50;7.03;;;21.00;99.90;;;;;;5027378;28;20694;-76
2022/07/24 07:49:29;;;;;;;8.20;6.88;;;21.10;99.90;;;;;;5028077;28;20044;-77
2022/07/24 07:51:55;;;;;;;7.40;6.10;;;21.20;99.90;;;;;;5026384;28;20633;-76
2022/07/24 07:54:20;;;;;;;11.77;6.43;;;21.30;99.90;;;;;;5027069;28;20144;-76
2022/07/24 07:56:46;;;;;;;9.90;7.47;;;21.20;99.90;;;;;;5024736;28;20120;-75
2022/07/24 07:59:13;;;;;;;8.77;6.82;;;21.10;99.90;;;;;;5027099;28;20069;-76
2022/07/24 08:01:38;;;;;;;7.03;6.03;;;21.20;99.90;;;;;;5023792;28;20334;-77
2022/07/24 08:04:04;;;;;;;9.40;7.88;;;21.30;99.90;;;;;;5026367;28;20054;-76
2022/07/24 08:06:30;;;;;;;9.65;7.22;;;21.30;99.90;;;;;;5027999;28;20121;-75
2022/07/24 08:08:56;;;;;;;7.78;6.50;;;21.30;99.90;;;;;;5027108;28;20091;-78
2022/07/24 08:11:21;;;;;;;12.00;5.80;;;21.30;99.90;;;;;;5025504;28;20095;-77
2022/07/24 08:13:47;;;;;;;9.38;5.53;;;21.50;99.90;;;;;;5025594;28;20041;-77
2022/07/24 08:16:13;;;;;;;6.75;5.00;;;22.00;99.90;;;;;;5024678;28;20037;-76
2022/07/24 08:18:39;;;;;;;9.00;5.57;;;22.50;99.90;;;;;;5027944;28;20060;-78
2022/07/24 08:21:05;;;;;;;7.10;4.80;;;22.60;99.90;;;;;;5028295;28;20124;-76
2022/07/24 08:23:31;;;;;;;5.75;4.90;;;22.80;99.90;;;;;;5026219;28;20126;-77
2022/07/24 08:25:56;;;;;;;11.35;5.60;;;22.90;99.90;;;;;;5023334;28;20466;-79
2022/07/24 08:28:22;;;;;;;6.55;5.22;;;22.70;99.90;;;;;;5024820;28;20030;-78
2022/07/24 08:30:49;;;;;;;5.03;4.53;;;22.80;99.90;;;;;;5024313;28;20057;-78
2022/07/24 08:33:15;;;;;;;5.43;4.22;;;23.00;99.90;;;;;;5027216;28;20045;-78
2022/07/24 08:35:40;;;;;;;6.25;3.78;;;23.10;99.90;;;;;;5027284;28;20084;-77
2022/07/24 08:38:06;;;;;;;5.30;4.38;;;22.90;99.90;;;;;;5025064;28;20188;-77
2022/07/24 08:40:38;;;;;;;6.72;3.13;;;23.00;99.90;;;;;;5024634;28;20056;-77
2022/07/24 08:43:09;;;;;;;5.60;3.45;;;22.90;99.90;;;;;;5026827;28;20314;-78
2022/07/24 08:45:39;;;;;;;3.72;3.42;;;23.40;99.90;;;;;;5024989;28;20033;-78
2022/07/24 08:48:07;;;;;;;3.65;2.85;;;23.20;99.90;;;;;;5025371;28;20045;-76
2022/07/24 08:50:35;;;;;;;5.82;2.55;;;23.00;99.90;;;;;;5027030;28;20083;-78
2022/07/24 08:53:01;;;;;;;6.47;3.58;;;22.90;99.90;;;;;;5019978;28;20046;-77
2022/07/24 08:55:31;;;;;;;5.30;3.05;;;23.30;99.90;;;;;;5007443;28;20042;-78
2022/07/24 08:57:57;;;;;;;;;;;23.60;99.90;;;;;;5022793;28;20055;-77
2022/07/24 09:00:24;;;;;;;4.50;2.85;;;23.80;99.90;;;;;;5026327;28;19932;-76
2022/07/24 09:02:50;;;;;;;8.57;3.58;;;23.70;99.90;;;;;;5025898;28;20056;-76
2022/07/24 09:05:16;;;;;;;6.20;4.07;;;23.50;99.90;;;;;;5026978;28;20450;-77
2022/07/24 09:07:41;;;;;;;5.07;3.10;;;23.80;99.90;;;;;;5023960;28;20073;-78
2022/07/24 09:10:16;;;;;;;5.53;3.45;;;23.90;99.90;;;;;;5024271;28;20095;-76
2022/07/24 09:12:46;;;;;;;5.85;3.15;;;24.00;99.90;;;;;;5026457;28;20037;-76
2022/07/24 09:15:17;;;;;;;3.55;2.70;;;23.90;99.90;;;;;;5007709;28;20594;-77
2022/07/24 09:17:53;;;;;;;4.05;3.20;;;23.90;99.90;;;;;;5025998;28;20065;-77
2022/07/24 09:20:20;;;;;;;3.47;2.40;;;23.90;99.90;;;;;;5026708;28;20503;-76
2022/07/24 09:22:47;;;;;;;5.18;3.50;;;24.30;99.90;;;;;;5027161;28;20068;-78
2022/07/24 09:25:20;;;;;;;3.30;2.85;;;24.20;99.90;;;;;;5025485;28;20038;-77
2022/07/24 09:28:03;;;;;;;3.97;2.55;;;24.20;99.90;;;;;;5025953;28;20184;-77
2022/07/24 09:30:32;;;;;;;3.15;2.28;;;24.00;99.90;;;;;;5025587;28;20037;-77
2022/07/24 09:33:21;;;;;;;3.08;2.30;;;23.70;99.90;;;;;;5025331;28;20102;-77
2022/07/24 09:35:52;;;;;;;11.05;3.33;;;23.80;99.90;;;;;;5028980;28;20431;-86
2022/07/24 09:38:19;;;;;;;4.68;1.95;;;24.00;99.90;;;;;;5027374;28;20045;-78
2022/07/24 09:40:58;;;;;;;3.42;1.98;;;24.00;99.90;;;;;;5026591;28;20029;-81
2022/07/24 09:43:31;;;;;;;3.03;2.13;;;23.80;99.90;;;;;;5026316;28;20160;-78
2022/07/24 09:46:00;;;;;;;3.15;1.88;;;23.80;99.90;;;;;;5026269;28;20051;-79
2022/07/24 09:48:28;;;;;;;3.35;2.30;;;24.00;99.90;;;;;;5026057;28;20045;-78
2022/07/24 09:50:56;;;;;;;5.28;3.17;;;23.90;99.90;;;;;;5026120;28;20100;-78
2022/07/24 09:53:25;;;;;;;3.95;2.40;;;24.00;99.90;;;;;;5024308;28;20484;-78
2022/07/24 09:56:06;;;;;;;2.38;2.17;;;23.90;99.90;;;;;;5025963;28;20111;-79
2022/07/24 09:58:36;;;;;;;9.18;2.83;;;23.80;99.90;;;;;;5024877;28;20106;-80
2022/07/24 10:01:04;;;;;;;3.17;2.13;;;23.90;99.90;;;;;;5023014;28;20061;-80
2022/07/24 10:03:33;;;;;;;4.05;2.03;;;24.00;99.90;;;;;;5026413;28;20042;-80
2022/07/24 10:06:01;;;;;;;3.83;3.28;;;24.00;99.90;;;;;;5026009;28;20049;-80
2022/07/24 10:08:29;;;;;;;2.80;2.50;;;23.90;99.90;;;;;;5026296;28;20037;-80
2022/07/24 10:10:55;;;;;;;3.22;2.83;;;24.00;99.90;;;;;;5025882;28;20042;-81
2022/07/24 10:13:21;;;;;;;3.38;2.03;;;24.40;99.90;;;;;;5026830;28;20495;-81
2022/07/24 10:16:12;;;;;;;4.38;2.20;;;24.60;99.90;;;;;;5025335;28;20345;-81
2022/07/24 10:18:58;;;;;;;4.47;2.80;;;24.90;99.90;;;;;;5026513;28;20128;-80
2022/07/24 10:21:25;;;;;;;3.65;2.63;;;25.00;99.90;;;;;;5024705;28;20566;-80
2022/07/24 10:24:10;;;;;;;4.90;2.17;;;25.10;99.90;;;;;;5011246;28;20453;-80
2022/07/24 10:26:42;;;;;;;7.18;2.65;;;24.90;99.90;;;;;;5011045;28;20124;-78
2022/07/24 10:29:17;;;;;;;3.20;2.40;;;24.50;99.90;;;;;;5025145;28;20152;-79
2022/07/24 10:31:45;;;;;;;3.28;2.50;;;24.30;99.90;;;;;;5023276;28;20044;-78
2022/07/24 10:34:43;;;;;;;2.97;2.28;;;24.20;99.90;;;;;;5025541;28;20037;-80
2022/07/24 10:37:30;;;;;;;31.20;3.78;;;24.80;99.90;;;;;;5025350;28;20778;-81
2022/07/24 10:40:04;;;;;;;2.83;2.15;;;25.30;99.90;;;;;;5024142;28;20085;-79
2022/07/24 10:42:30;;;;;;;5.30;2.83;;;25.30;99.90;;;;;;5025703;28;20049;-78
2022/07/24 10:45:19;;;;;;;5.57;2.08;;;25.10;99.90;;;;;;5021944;28;20044;-79
2022/07/24 10:47:46;;;;;;;2.47;2.15;;;24.80;99.90;;;;;;5009321;28;20412;-78
2022/07/24 10:50:14;;;;;;;2.95;2.30;;;24.70;99.90;;;;;;5025425;28;20045;-79
2022/07/24 10:52:41;;;;;;;5.28;2.60;;;24.90;99.90;;;;;;5025469;28;20045;-80
2022/07/24 10:55:31;;;;;;;3.30;2.28;;;25.00;99.90;;;;;;5025332;28;20049;-79
2022/07/24 10:58:10;;;;;;;3.25;2.17;;;25.00;99.90;;;;;;5030485;28;20050;-79
2022/07/24 11:00:38;;;;;;;7.27;2.83;;;25.20;99.90;;;;;;5022167;28;20080;-80
2022/07/24 11:03:29;;;;;;;2.55;2.03;;;25.20;99.90;;;;;;5024226;28;20304;-79
2022/07/24 11:06:11;;;;;;;5.78;2.53;;;25.20;99.90;;;;;;5022574;28;20053;-77
2022/07/24 11:08:47;;;;;;;2.80;1.83;;;25.40;99.90;;;;;;5023241;28;20033;-78
2022/07/24 11:11:20;;;;;;;2.70;1.80;;;25.40;99.90;;;;;;5026050;28;20048;-80
2022/07/24 11:13:51;;;;;;;3.70;2.20;;;25.40;99.90;;;;;;5022205;28;20465;-74
2022/07/24 11:16:19;;;;;;;3.95;2.53;;;25.50;99.90;;;;;;5017532;28;20095;-75
2022/07/24 11:18:53;;;;;;;2.25;1.95;;;25.60;99.90;;;;;;5024168;28;20051;-74
2022/07/24 11:21:32;;;;;;;2.50;2.28;;;25.60;99.90;;;;;;5014115;28;20041;-74
2022/07/24 11:27:07;;;;;;;5.45;2.28;;;25.80;99.90;;;;;;5022996;28;20048;-74
2022/07/24 11:29:38;;;;;;;5.50;2.33;;;25.80;99.90;;;;;;5008276;28;20053;-73
2022/07/24 11:32:05;;;;;;;3.70;2.50;;;25.90;99.90;;;;;;5028108;28;20492;-76
2022/07/24 11:34:32;;;;;;;3.22;2.42;;;25.90;99.90;;;;;;5027507;28;20041;-75
2022/07/24 11:36:59;;;;;;;2.72;2.00;;;25.80;99.90;;;;;;5028256;28;20048;-75
2022/07/24 11:39:36;;;;;;;16.67;3.20;;;25.80;99.90;;;;;;5027977;28;20098;-76
2022/07/24 11:42:05;;;;;;;4.20;1.80;;;25.80;99.90;;;;;;5027301;28;20041;-78
2022/07/24 11:44:39;;;;;;;7.53;2.17;;;26.00;99.90;;;;;;5026986;28;20038;-75
2022/07/24 11:47:13;;;;;;;4.25;2.25;;;26.20;99.90;;;;;;5027320;28;20301;-74
2022/07/24 11:50:02;;;;;;;3.55;2.05;;;26.00;99.90;;;;;;5025499;28;20516;-75
2022/07/24 11:52:37;;;;;;;6.28;2.70;;;26.30;99.90;;;;;;4988425;28;20054;-75
2022/07/24 11:55:14;;;;;;;3.50;2.25;;;26.20;99.90;;;;;;4987884;28;20086;-76
2022/07/24 11:57:43;;;;;;;3.28;2.33;;;26.10;99.90;;;;;;4986692;28;20113;-76
2022/07/24 12:00:14;;;;;;;2.55;2.13;;;26.20;99.90;;;;;;4986772;28;20046;-74
2022/07/24 12:02:52;;;;;;;4.60;2.65;;;26.40;99.90;;;;;;4984400;28;20049;-75
2022/07/24 12:05:26;;;;;;;3.63;2.17;;;26.60;99.90;;;;;;4983449;28;20054;-76
2022/07/24 12:07:52;;;;;;;3.17;2.25;;;26.40;99.90;;;;;;4988019;28;20138;-76
2022/07/24 12:10:20;;;;;;;3.50;2.22;;;26.40;99.90;;;;;;4988834;28;20382;-77
2022/07/24 12:12:48;;;;;;;5.20;3.65;;;26.60;99.90;;;;;;4988550;28;20046;-77
2022/07/24 12:15:14;;;;;;;3.72;2.17;;;26.60;99.90;;;;;;4986015;28;20454;-76
2022/07/24 12:17:57;;;;;;;3.00;1.85;;;26.70;99.90;;;;;;4985548;28;20480;-77
2022/07/24 12:20:25;;;;;;;2.80;2.17;;;26.60;99.90;;;;;;4985804;28;20121;-76
2022/07/24 12:22:52;;;;;;;3.17;2.03;;;26.40;99.90;;;;;;4986462;28;20561;-77
2022/07/24 12:25:18;;;;;;;2.47;2.15;;;26.50;99.90;;;;;;4988626;28;20796;-82
2022/07/24 12:27:47;;;;;;;3.83;1.95;;;26.40;99.90;;;;;;4987365;28;20515;-78
2022/07/24 12:30:29;;;;;;;2.65;2.40;;;26.60;99.90;;;;;;4983950;28;20133;-79
2022/07/24 12:32:59;;;;;;;4.78;2.45;;;26.70;99.90;;;;;;4952748;28;20049;-78
2022/07/24 12:35:26;;;;;;;5.00;2.10;;;26.60;99.90;;;;;;4972013;28;20497;-79
2022/07/24 12:37:53;;;;;;;2.45;1.67;;;26.50;99.90;;;;;;4987729;28;20056;-76
2022/07/24 12:40:36;;;;;;;3.13;2.20;;;26.40;99.90;;;;;;4987867;28;20074;-74
2022/07/24 12:43:10;;;;;;;2.05;1.70;;;26.60;99.90;;;;;;4986834;28;20042;-75
2022/07/24 12:45:37;;;;;;;4.88;2.03;;;26.70;99.90;;;;;;4983301;28;20386;-75
2022/07/24 12:48:19;;;;;;;2.65;1.60;;;26.80;99.90;;;;;;4986657;28;20068;-75
2022/07/24 12:51:02;;;;;;;2.92;2.17;;;26.80;99.90;;;;;;5000735;28;20061;-77